createdAt,value
2023-08-27T00:00:51.009Z,19.70
2023-08-27T00:06:14.195Z,18.30
2023-08-27T00:11:17.197Z,16.90
2023-08-27T00:16:20.359Z,15.60
2023-08-27T00:21:23.630Z,17.10
2023-08-27T00:26:26.632Z,19.30
2023-08-27T00:31:32.033Z,21.30
2023-08-27T00:36:36.632Z,15.00
2023-08-27T00:41:39.645Z,18.10
2023-08-27T00:46:42.648Z,16.70
2023-08-27T00:51:48.033Z,15.40
2023-08-27T00:56:51.942Z,13.80
2023-08-27T01:01:54.944Z,15.00
2023-08-27T01:07:08.085Z,15.80
2023-08-27T01:12:21.236Z,18.70
2023-08-27T01:17:24.980Z,19.70
2023-08-27T01:22:29.807Z,20.80
2023-08-27T01:27:41.109Z,19.50
2023-08-27T01:32:51.123Z,20.80
2023-08-27T01:37:54.901Z,20.80
2023-08-27T01:42:58.227Z,20.40
2023-08-27T01:48:01.778Z,23.40
2023-08-27T01:53:04.844Z,16.90
2023-08-27T01:58:07.954Z,16.30
2023-08-27T02:03:10.992Z,18.00
2023-08-27T02:08:14.171Z,21.70
2023-08-27T02:13:18.039Z,19.70
2023-08-27T02:18:21.107Z,15.20
2023-08-27T02:23:24.738Z,16.40
2023-08-27T02:28:28.758Z,15.70
2023-08-27T02:33:31.864Z,16.70
2023-08-27T02:38:35.796Z,16.00
2023-08-27T02:43:38.806Z,17.50
2023-08-27T02:48:41.809Z,21.10
2023-08-27T02:53:44.927Z,20.40
2023-08-27T02:58:51.640Z,19.60
2023-08-27T03:03:54.719Z,17.50
2023-08-27T03:08:57.831Z,18.70
2023-08-27T03:14:00.939Z,16.30
2023-08-27T03:19:04.151Z,23.70
2023-08-27T03:24:07.786Z,16.80
2023-08-27T03:29:10.912Z,19.70
2023-08-27T03:34:14.094Z,21.60
2023-08-27T03:39:17.107Z,16.90
2023-08-27T03:44:20.106Z,21.90
2023-08-27T03:49:23.128Z,19.20
2023-08-27T03:54:27.961Z,17.80
2023-08-27T03:59:31.070Z,24.40
2023-08-27T04:04:34.391Z,18.50
2023-08-27T04:09:37.502Z,23.10
2023-08-27T04:14:40.511Z,29.70
2023-08-27T04:24:47.552Z,30.20
2023-08-27T04:29:50.759Z,30.50
2023-08-27T04:34:53.964Z,33.50
2023-08-27T04:39:56.974Z,28.00
2023-08-27T04:44:59.976Z,30.60
2023-08-27T04:50:03.087Z,31.10
2023-08-27T04:55:07.594Z,27.30
2023-08-27T05:00:18.420Z,30.10
2023-08-27T05:05:21.431Z,27.30
2023-08-27T05:10:24.531Z,28.60
2023-08-27T05:15:27.718Z,26.80
2023-08-27T05:20:30.962Z,26.00
2023-08-27T05:25:34.274Z,25.40
2023-08-27T05:30:37.693Z,27.70
2023-08-27T05:35:41.421Z,26.40
2023-08-27T05:40:44.513Z,26.30
2023-08-27T05:45:47.434Z,29.80
2023-08-27T05:50:50.535Z,28.90
2023-08-27T05:55:53.477Z,25.20
2023-08-27T06:00:57.859Z,30.30
2023-08-27T06:06:01.092Z,32.80
2023-08-27T06:11:05.636Z,32.30
2023-08-27T06:16:08.951Z,35.40
2023-08-27T06:21:12.194Z,32.90
2023-08-27T06:26:15.369Z,30.20
2023-08-27T06:31:18.391Z,27.90
2023-08-27T06:36:21.507Z,29.30
2023-08-27T06:41:24.495Z,24.90
2023-08-27T06:46:27.628Z,22.40
2023-08-27T06:51:30.606Z,25.70
2023-08-27T06:56:33.612Z,22.30
2023-08-27T07:01:36.622Z,22.40
2023-08-27T07:06:39.737Z,25.00
2023-08-27T07:11:43.119Z,24.20
2023-08-27T07:16:46.259Z,23.90
2023-08-27T07:21:49.510Z,25.60
2023-08-27T07:26:53.098Z,24.60
2023-08-27T07:31:56.301Z,23.80
2023-08-27T07:36:59.613Z,25.20
2023-08-27T07:42:04.066Z,25.30
2023-08-27T07:47:07.267Z,22.40
2023-08-27T07:52:10.381Z,20.20
2023-08-27T07:57:14.151Z,22.00
2023-08-27T08:02:17.216Z,20.40
2023-08-27T08:07:20.630Z,20.60
2023-08-27T08:12:23.732Z,18.20
2023-08-27T08:17:39.639Z,20.90
2023-08-27T08:22:47.148Z,18.20
2023-08-27T08:27:50.098Z,16.40
2023-08-27T08:32:53.808Z,14.30
2023-08-27T08:37:56.894Z,11.70
2023-08-27T08:43:02.952Z,14.90
2023-08-27T08:48:07.542Z,9.90
2023-08-27T08:53:15.891Z,13.70
2023-08-27T08:58:21.405Z,10.20
2023-08-27T09:03:26.503Z,11.40
2023-08-27T09:08:32.313Z,11.60
2023-08-27T09:13:35.558Z,13.60
2023-08-27T09:18:39.189Z,10.70
2023-08-27T09:23:42.293Z,10.00
2023-08-27T09:28:45.780Z,11.70
2023-08-27T09:33:48.817Z,9.60
2023-08-27T09:38:51.918Z,10.50
2023-08-27T09:43:55.530Z,11.90
2023-08-27T09:49:00.592Z,10.30
2023-08-27T09:54:18.653Z,12.60
2023-08-27T09:59:22.580Z,10.40
2023-08-27T10:04:25.687Z,13.00
2023-08-27T10:09:35.710Z,11.00
2023-08-27T10:14:41.650Z,12.00
2023-08-27T10:19:45.160Z,11.40
2023-08-27T10:24:50.415Z,9.70
2023-08-27T10:29:55.061Z,10.30
2023-08-27T10:34:58.267Z,10.10
2023-08-27T10:40:02.434Z,12.10
2023-08-27T10:45:16.586Z,12.00
2023-08-27T10:50:22.904Z,10.30
2023-08-27T10:55:39.174Z,10.50
2023-08-27T11:00:58.422Z,11.80
2023-08-27T11:06:16.761Z,11.10
2023-08-27T11:11:26.548Z,9.20
2023-08-27T11:16:30.969Z,9.10
2023-08-27T11:21:34.351Z,9.60
2023-08-27T11:26:38.480Z,10.90
2023-08-27T11:31:42.924Z,11.40
2023-08-27T11:36:50.432Z,10.30
2023-08-27T11:41:53.950Z,10.70
2023-08-27T11:47:06.586Z,10.10
2023-08-27T11:52:10.232Z,11.00
2023-08-27T11:57:17.523Z,8.90
2023-08-27T12:02:21.279Z,12.10
2023-08-27T12:07:31.224Z,10.50
2023-08-27T12:12:38.520Z,8.00
2023-08-27T12:17:41.968Z,7.90
2023-08-27T12:22:47.308Z,7.40
2023-08-27T12:27:50.811Z,8.70
2023-08-27T12:32:57.007Z,8.60
2023-08-27T12:38:00.785Z,7.90
2023-08-27T12:43:04.747Z,10.00
2023-08-27T12:48:08.676Z,11.90
2023-08-27T12:53:12.194Z,10.30
2023-08-27T12:58:15.628Z,11.90
2023-08-27T13:03:19.093Z,9.90
2023-08-27T13:08:22.649Z,12.50
2023-08-27T13:13:26.529Z,12.70
2023-08-27T13:18:30.506Z,10.10
2023-08-27T13:23:33.920Z,9.80
2023-08-27T13:28:37.969Z,9.10
2023-08-27T13:33:41.577Z,9.70
2023-08-27T13:38:45.449Z,11.00
2023-08-27T13:43:48.962Z,9.30
2023-08-27T13:48:52.439Z,9.10
2023-08-27T13:53:55.962Z,10.60
2023-08-27T13:58:59.378Z,9.50
2023-08-27T14:04:02.798Z,11.20
2023-08-27T14:09:06.619Z,10.60
2023-08-27T14:14:10.237Z,8.60
2023-08-27T14:19:13.859Z,9.50
2023-08-27T14:24:17.187Z,10.50
2023-08-27T14:29:20.689Z,11.10
2023-08-27T14:34:24.718Z,10.60
2023-08-27T14:39:29.675Z,9.40
2023-08-27T14:44:34.829Z,8.70
2023-08-27T14:49:38.553Z,9.50
2023-08-27T14:54:42.072Z,8.30
2023-08-27T14:59:48.379Z,9.30
2023-08-27T15:04:52.024Z,9.40
2023-08-27T15:09:55.601Z,10.40
2023-08-27T15:14:59.038Z,13.90
2023-08-27T15:20:02.436Z,11.10
2023-08-27T15:25:06.238Z,10.80
2023-08-27T15:30:11.160Z,10.30
2023-08-27T15:35:17.423Z,10.70
2023-08-27T15:40:21.013Z,13.20
2023-08-27T15:45:24.533Z,12.90
2023-08-27T15:50:28.057Z,12.10
2023-08-27T15:55:31.477Z,10.40
2023-08-27T16:00:43.612Z,10.30
2023-08-27T16:05:47.413Z,11.20
2023-08-27T16:10:51.354Z,13.50
2023-08-27T16:15:55.184Z,11.00
2023-08-27T16:20:58.682Z,10.30
2023-08-27T16:26:02.113Z,10.90
2023-08-27T16:31:06.498Z,13.40
2023-08-27T16:36:09.961Z,12.00
2023-08-27T16:41:13.683Z,15.20
2023-08-27T16:46:17.766Z,12.10
2023-08-27T16:51:21.467Z,12.00
2023-08-27T16:56:25.158Z,15.20
2023-08-27T17:01:31.356Z,11.70
2023-08-27T17:06:35.582Z,11.30
2023-08-27T17:11:40.021Z,14.30
2023-08-27T17:16:46.422Z,13.10
2023-08-27T17:21:50.125Z,13.10
2023-08-27T17:26:53.750Z,12.20
2023-08-27T17:31:57.535Z,14.80
2023-08-27T17:37:01.838Z,12.70
2023-08-27T17:42:08.103Z,12.70
2023-08-27T17:47:13.170Z,14.10
2023-08-27T17:52:16.569Z,14.40
2023-08-27T17:57:20.086Z,15.30
2023-08-27T18:02:23.829Z,14.00
2023-08-27T18:07:27.430Z,16.20
2023-08-27T18:12:30.840Z,13.40
2023-08-27T18:17:37.387Z,13.90
2023-08-27T18:22:41.374Z,13.30
2023-08-27T18:27:46.118Z,14.20
2023-08-27T18:32:49.648Z,13.00
2023-08-27T18:37:53.260Z,14.20
2023-08-27T18:42:56.992Z,14.10
2023-08-27T18:48:00.972Z,13.10
2023-08-27T18:53:04.841Z,17.60
2023-08-27T18:58:08.982Z,18.90
2023-08-27T19:03:13.039Z,14.60
2023-08-27T19:08:18.281Z,14.20
2023-08-27T19:13:22.178Z,16.20
2023-08-27T19:18:26.180Z,15.40
2023-08-27T19:23:31.165Z,16.70
2023-08-27T19:28:35.110Z,18.50
2023-08-27T19:33:38.614Z,22.60
2023-08-27T19:38:43.275Z,17.40
2023-08-27T19:43:47.520Z,19.50
2023-08-27T19:48:51.220Z,20.40
2023-08-27T19:53:57.762Z,20.00
2023-08-27T19:59:01.530Z,25.30
2023-08-27T20:04:05.885Z,19.80
2023-08-27T20:09:09.395Z,18.70
2023-08-27T20:14:13.319Z,21.40
2023-08-27T20:19:17.166Z,21.00
2023-08-27T20:24:21.286Z,21.20
2023-08-27T20:29:24.799Z,17.60
2023-08-27T20:34:30.982Z,21.40
2023-08-27T20:39:35.315Z,24.80
2023-08-27T20:44:39.443Z,19.80
2023-08-27T20:49:43.383Z,23.00
2023-08-27T20:54:47.920Z,25.20
2023-08-27T20:59:54.611Z,23.80
2023-08-27T21:04:58.448Z,21.90
2023-08-27T21:10:01.968Z,25.40
2023-08-27T21:15:06.198Z,21.00
2023-08-27T21:20:09.994Z,20.70
2023-08-27T21:25:13.344Z,28.50
2023-08-27T21:30:17.152Z,23.90
2023-08-27T21:35:20.578Z,23.30
2023-08-27T21:40:24.399Z,22.30
2023-08-27T21:45:27.953Z,20.60
2023-08-27T21:50:31.437Z,23.30
2023-08-27T21:55:35.154Z,24.90
2023-08-27T22:00:39.543Z,21.90
2023-08-27T22:05:43.024Z,25.90
2023-08-27T22:10:46.248Z,22.80
2023-08-27T22:15:53.033Z,19.90
2023-08-27T22:20:58.080Z,22.10
2023-08-27T22:26:02.321Z,22.50
2023-08-27T22:31:06.217Z,22.00
2023-08-27T22:36:09.770Z,21.20
2023-08-27T22:41:12.868Z,17.00
2023-08-27T22:46:16.119Z,15.90
2023-08-27T22:51:19.321Z,12.90
2023-08-27T22:56:22.507Z,12.50
2023-08-27T23:01:25.610Z,9.20
2023-08-27T23:06:29.847Z,10.50
2023-08-27T23:11:33.067Z,8.80
2023-08-27T23:16:37.111Z,5.80
2023-08-27T23:21:40.203Z,4.50
2023-08-27T23:26:43.209Z,5.00
2023-08-27T23:31:46.214Z,4.50
2023-08-27T23:36:49.434Z,3.70
2023-08-27T23:41:52.534Z,1.90
2023-08-27T23:46:55.853Z,0.90
2023-08-27T23:51:58.851Z,2.60
2023-08-27T23:57:01.886Z,2.10
